Time;durP1;ratioP1;P1;durP2;ratioP2;P2;SDS_P1;SDS_P2;PMS_P1;PMS_P2;Temp;Humidity;BMP_temperature;BMP_pressure;BME280_temperature;BME280_humidity;BME280_pressure;Samples;Min_cycle;Max_cycle;Signal;HPM_P1;HPM_P2
2023/04/21 00:01:59;;;;;;;;;;;;;;;;;;4991482;28;7045;-91
2023/04/21 00:04:25;;;;;;;;;;;;;;;;;;4996802;28;7440;-93
2023/04/21 00:06:51;;;;;;;;;;;;;;;;;;4999414;28;8396;-93
2023/04/21 00:09:17;;;;;;;;;;;;;;;;;;4996861;28;7051;-93
2023/04/21 00:11:43;;;;;;;;;;;;;;;;;;4989986;28;7025;-93
2023/04/21 00:14:09;;;;;;;;;;;;;;;;;;4988757;28;7150;-93
2023/04/21 00:16:34;;;;;;;;;;;;;;;;;;5001882;28;7144;-93
2023/04/21 00:19:01;;;;;;;;;;;;;;;;;;4985952;28;8617;-92
2023/04/21 00:21:27;;;;;;;;;;;;;;;;;;4985558;28;7109;-92
2023/04/21 00:23:53;;;;;;;;;;;;;;;;;;4985885;28;8406;-92
2023/04/21 00:26:19;;;;;;;;;;;;;;;;;;4987811;28;7151;-93
2023/04/21 00:28:45;;;;;;;;;;;;;;;;;;4985123;28;7217;-92
2023/04/21 00:31:11;;;;;;;;;;;;;;;;;;4985869;28;7156;-95
2023/04/21 00:33:36;;;;;;;;;;;;;;;;;;4985581;28;8393;-94
2023/04/21 00:36:02;;;;;;;;;;;;;;;;;;4987334;28;8687;-93
2023/04/21 00:38:27;;;;;;;;;;;;;;;;;;5004257;28;8402;-94
2023/04/21 00:40:53;;;;;;;;;;;;;;;;;;4987865;28;8597;-94
2023/04/21 00:43:19;;;;;;;;;;;;;;;;;;5004615;28;7136;-92
2023/04/21 00:45:46;;;;;;;;;;;;;;;;;;5004355;28;6848;-93
2023/04/21 00:48:11;;;;;;;;;;;;;;;;;;5004487;28;7014;-93
2023/04/21 00:50:37;;;;;;;;;;;;;;;;;;5004594;28;8415;-93
2023/04/21 00:53:03;;;;;;;;;;;;;;;;;;4997942;28;6992;-93
2023/04/21 00:55:30;;;;;;;;;;;;;;;;;;4987449;28;6903;-93
2023/04/21 00:57:55;;;;;;;;;;;;;;;;;;4988338;28;6846;-92
2023/04/21 01:00:21;;;;;;;;;;;;;;;;;;4985777;28;7081;-93
2023/04/21 01:02:47;;;;;;;;;;;;;;;;;;4988396;28;7410;-92
2023/04/21 01:05:15;;;;;;;;;;;;;;;;;;4988210;28;6999;-93
2023/04/21 01:07:41;;;;;;;;;;;;;;;;;;4986646;28;8390;-93
2023/04/21 01:10:07;;;;;;;;;;;;;;;;;;5001141;28;7037;-93
2023/04/21 01:12:34;;;;;;;;;;;;;;;;;;4984652;28;8271;-95
2023/04/21 01:15:00;;;;;;;;;;;;;;;;;;4984940;28;7078;-92
2023/04/21 01:17:25;;;;;;;;;;;;;;;;;;4987817;28;8402;-93
2023/04/21 01:19:52;;;;;;;;;;;;;;;;;;4998141;28;8310;-92
2023/04/21 01:22:18;;;;;;;;;;;;;;;;;;4988279;28;7145;-93
2023/04/21 01:24:46;;;;;;;;;;;;;;;;;;5003970;28;8421;-92
2023/04/21 01:27:20;;;;;;;;;;;;;;;;;;5003961;28;7117;-93
2023/04/21 01:29:47;;;;;;;;;;;;;;;;;;5003974;28;7118;-92
2023/04/21 01:32:15;;;;;;;;;;;;;;;;;;5003298;28;7227;-93
2023/04/21 01:34:41;;;;;;;;;;;;;;;;;;5003146;28;7028;-92
2023/04/21 01:37:08;;;;;;;;;;;;;;;;;;4987141;28;6839;-92
2023/04/21 01:39:36;;;;;;;;;;;;;;;;;;5003297;28;7226;-92
2023/04/21 01:42:02;;;;;;;;;;;;;;;;;;5003338;28;8453;-94
2023/04/21 01:44:28;;;;;;;;;;;;;;;;;;5003242;28;7022;-91
2023/04/21 01:46:53;;;;;;;;;;;;;;;;;;5001797;28;7145;-92
2023/04/21 01:49:19;;;;;;;;;;;;;;;;;;5003148;28;6822;-92
2023/04/21 01:51:44;;;;;;;;;;;;;;;;;;5003022;28;7195;-92
2023/04/21 01:54:10;;;;;;;;;;;;;;;;;;5003452;28;7018;-95
2023/04/21 01:56:36;;;;;;;;;;;;;;;;;;5002988;28;7877;-92
2023/04/21 01:59:02;;;;;;;;;;;;;;;;;;5003069;28;6974;-94
2023/04/21 02:01:28;;;;;;;;;;;;;;;;;;4999495;28;6820;-92
2023/04/21 02:03:54;;;;;;;;;;;;;;;;;;5003081;28;7119;-94
2023/04/21 02:06:20;;;;;;;;;;;;;;;;;;5002674;28;8389;-94
2023/04/21 02:08:45;;;;;;;;;;;;;;;;;;5002956;28;8371;-93
2023/04/21 02:11:11;;;;;;;;;;;;;;;;;;5002998;28;8399;-94
2023/04/21 02:13:36;;;;;;;;;;;;;;;;;;5002530;28;6986;-93
2023/04/21 02:16:02;;;;;;;;;;;;;;;;;;5002647;28;8309;-94
2023/04/21 02:18:28;;;;;;;;;;;;;;;;;;5002494;28;7111;-92
2023/04/21 02:20:55;;;;;;;;;;;;;;;;;;5002846;28;8321;-93
2023/04/21 02:23:20;;;;;;;;;;;;;;;;;;5002670;28;8506;-92
2023/04/21 02:25:46;;;;;;;;;;;;;;;;;;5002966;28;8726;-93
2023/04/21 02:28:12;;;;;;;;;;;;;;;;;;5001425;28;8311;-92
2023/04/21 02:30:38;;;;;;;;;;;;;;;;;;4972340;28;8671;-92
2023/04/21 02:33:03;;;;;;;;;;;;;;;;;;5001935;28;6817;-94
2023/04/21 02:35:30;;;;;;;;;;;;;;;;;;5002108;28;7204;-92
2023/04/21 02:37:55;;;;;;;;;;;;;;;;;;5002529;28;7230;-94
2023/04/21 02:40:21;;;;;;;;;;;;;;;;;;5002263;28;8653;-93
2023/04/21 02:42:46;;;;;;;;;;;;;;;;;;5000409;28;8285;-92
2023/04/21 02:45:12;;;;;;;;;;;;;;;;;;5001688;28;8838;-92
2023/04/21 02:47:38;;;;;;;;;;;;;;;;;;5002285;28;7028;-92
2023/04/21 02:50:04;;;;;;;;;;;;;;;;;;5001656;28;8301;-91
2023/04/21 02:52:29;;;;;;;;;;;;;;;;;;5002387;28;6876;-92
2023/04/21 02:54:55;;;;;;;;;;;;;;;;;;4998940;28;8502;-92
2023/04/21 02:57:21;;;;;;;;;;;;;;;;;;5001857;28;8363;-94
2023/04/21 02:59:46;;;;;;;;;;;;;;;;;;5001380;28;6992;-93
2023/04/21 03:02:12;;;;;;;;;;;;;;;;;;4999598;28;7142;-95
2023/04/21 03:04:38;;;;;;;;;;;;;;;;;;5001797;28;7403;-93
2023/04/21 03:07:03;;;;;;;;;;;;;;;;;;5001981;28;6983;-92
2023/04/21 03:09:29;;;;;;;;;;;;;;;;;;4993237;28;7204;-93
2023/04/21 03:11:55;;;;;;;;;;;;;;;;;;4982806;28;8587;-91
2023/04/21 03:14:20;;;;;;;;;;;;;;;;;;4982728;28;7055;-90
2023/04/21 03:16:46;;;;;;;;;;;;;;;;;;4982370;28;8474;-93
2023/04/21 03:19:12;;;;;;;;;;;;;;;;;;4982558;28;8700;-91
2023/04/21 03:21:37;;;;;;;;;;;;;;;;;;4983130;28;7026;-91
2023/04/21 03:24:04;;;;;;;;;;;;;;;;;;4998743;28;8457;-94
2023/04/21 03:26:30;;;;;;;;;;;;;;;;;;5004883;28;7028;-92
2023/04/21 03:28:56;;;;;;;;;;;;;;;;;;5012703;28;7009;-92
2023/04/21 03:31:21;;;;;;;;;;;;;;;;;;5014068;28;8534;-93
2023/04/21 03:33:47;;;;;;;;;;;;;;;;;;5013004;28;7109;-92
2023/04/21 03:36:28;;;;;;;;;;;;;;;;;;5047529;28;6615;-95
2023/04/21 03:38:54;;;;;;;;;;;;;;;;;;5030331;28;8276;-94
2023/04/21 03:41:19;;;;;;;;;;;;;;;;;;5025280;28;6787;-94
2023/04/21 03:43:45;;;;;;;;;;;;;;;;;;5019163;28;8926;-93
2023/04/21 03:46:18;;;;;;;;;;;;;;;;;;5018823;28;8880;-95
2023/04/21 03:48:44;;;;;;;;;;;;;;;;;;5018629;28;7209;-94
2023/04/21 03:51:10;;;;;;;;;;;;;;;;;;5016486;28;8321;-93
2023/04/21 03:53:35;;;;;;;;;;;;;;;;;;5017977;28;8416;-94
2023/04/21 03:56:01;;;;;;;;;;;;;;;;;;5017830;28;8431;-93
2023/04/21 03:58:26;;;;;;;;;;;;;;;;;;5018472;28;7113;-93
2023/04/21 04:00:52;;;;;;;;;;;;;;;;;;5019542;28;7091;-93
2023/04/21 04:03:19;;;;;;;;;;;;;;;;;;5014232;28;7009;-94
2023/04/21 04:05:44;;;;;;;;;;;;;;;;;;5025202;28;6811;-93
2023/04/21 04:08:10;;;;;;;;;;;;;;;;;;5027707;28;6983;-94
2023/04/21 04:10:36;;;;;;;;;;;;;;;;;;5018110;28;8431;-94
2023/04/21 04:13:02;;;;;;;;;;;;;;;;;;5018079;28;8539;-94
2023/04/21 04:15:28;;;;;;;;;;;;;;;;;;5017963;28;7021;-93
2023/04/21 04:17:53;;;;;;;;;;;;;;;;;;5017742;28;6970;-94
2023/04/21 04:20:19;;;;;;;;;;;;;;;;;;5013513;28;8315;-95
2023/04/21 04:22:44;;;;;;;;;;;;;;;;;;5021048;28;7009;-95
2023/04/21 04:25:11;;;;;;;;;;;;;;;;;;5034395;28;8413;-94
2023/04/21 04:27:37;;;;;;;;;;;;;;;;;;5037101;28;6850;-95
2023/04/21 04:30:04;;;;;;;;;;;;;;;;;;5020338;28;8388;-94
2023/04/21 04:32:30;;;;;;;;;;;;;;;;;;5034410;28;8292;-94
2023/04/21 04:34:55;;;;;;;;;;;;;;;;;;5020042;28;7150;-95
2023/04/21 04:37:21;;;;;;;;;;;;;;;;;;5020461;28;8705;-95
2023/04/21 04:39:49;;;;;;;;;;;;;;;;;;5037110;28;6987;-94
2023/04/21 04:42:14;;;;;;;;;;;;;;;;;;5017833;28;8329;-93
2023/04/21 04:44:40;;;;;;;;;;;;;;;;;;5033691;28;7116;-93
2023/04/21 04:47:06;;;;;;;;;;;;;;;;;;4992165;28;8855;-93
2023/04/21 04:49:32;;;;;;;;;;;;;;;;;;4988154;28;7183;-94
2023/04/21 04:51:58;;;;;;;;;;;;;;;;;;4987904;28;6807;-93
2023/04/21 04:54:24;;;;;;;;;;;;;;;;;;5001983;28;8721;-93
2023/04/21 04:56:49;;;;;;;;;;;;;;;;;;5006852;28;7005;-94
2023/04/21 04:59:15;;;;;;;;;;;;;;;;;;5007194;28;7006;-94
2023/04/21 05:01:41;;;;;;;;;;;;;;;;;;5000882;28;7028;-94
2023/04/21 05:04:07;;;;;;;;;;;;;;;;;;5007008;28;7007;-94
2023/04/21 05:06:32;;;;;;;;;;;;;;;;;;5007046;28;7214;-94
2023/04/21 05:08:58;;;;;;;;;;;;;;;;;;5007117;28;7274;-94
2023/04/21 05:11:24;;;;;;;;;;;;;;;;;;5023158;28;6995;-94
2023/04/21 05:13:49;;;;;;;;;;;;;;;;;;5023505;28;7099;-94
2023/04/21 05:16:15;;;;;;;;;;;;;;;;;;5006064;28;8382;-94
2023/04/21 05:18:41;;;;;;;;;;;;;;;;;;5006823;28;7010;-94
2023/04/21 05:21:06;;;;;;;;;;;;;;;;;;5023228;28;8506;-93
2023/04/21 05:23:32;;;;;;;;;;;;;;;;;;5021080;28;8423;-93
2023/04/21 05:25:58;;;;;;;;;;;;;;;;;;5005506;28;8497;-93
2023/04/21 05:28:24;;;;;;;;;;;;;;;;;;5004406;28;8482;-95
2023/04/21 05:30:50;;;;;;;;;;;;;;;;;;5003408;28;7062;-93
2023/04/21 05:33:18;;;;;;;;;;;;;;;;;;5006697;28;7415;-95
2023/04/21 05:35:44;;;;;;;;;;;;;;;;;;5006090;28;6910;-92
2023/04/21 05:38:09;;;;;;;;;;;;;;;;;;5005811;28;7117;-95
2023/04/21 05:40:35;;;;;;;;;;;;;;;;;;5018248;28;6881;-94
2023/04/21 05:43:01;;;;;;;;;;;;;;;;;;5001067;28;6846;-94
2023/04/21 05:45:26;;;;;;;;;;;;;;;;;;5007986;28;8569;-95
2023/04/21 05:47:52;;;;;;;;;;;;;;;;;;5021072;28;7180;-95
2023/04/21 05:50:18;;;;;;;;;;;;;;;;;;5023742;28;8345;-93
2023/04/21 05:52:46;;;;;;;;;;;;;;;;;;5025140;28;7068;-92
2023/04/21 05:55:11;;;;;;;;;;;;;;;;;;5025530;28;7160;-92
2023/04/21 05:57:40;;;;;;;;;;;;;;;;;;5027393;28;8323;-94
2023/04/21 06:00:09;;;;;;;;;;;;;;;;;;5026752;28;8355;-93
2023/04/21 06:02:35;;;;;;;;;;;;;;;;;;5025290;28;6818;-93
2023/04/21 06:05:01;;;;;;;;;;;;;;;;;;5024582;28;8271;-94
2023/04/21 06:07:26;;;;;;;;;;;;;;;;;;5002901;28;6867;-93
2023/04/21 06:09:56;;;;;;;;;;;;;;;;;;4998066;28;8405;-93
2023/04/21 06:12:22;;;;;;;;;;;;;;;;;;5013631;28;7095;-95
2023/04/21 06:14:48;;;;;;;;;;;;;;;;;;5005850;28;6832;-94
2023/04/21 06:17:17;;;;;;;;;;;;;;;;;;4991214;28;7203;-93
2023/04/21 06:19:42;;;;;;;;;;;;;;;;;;5023919;28;6830;-93
2023/04/21 06:22:08;;;;;;;;;;;;;;;;;;5024559;28;8296;-93
2023/04/21 06:24:34;;;;;;;;;;;;;;;;;;5024285;28;6996;-93
2023/04/21 06:27:00;;;;;;;;;;;;;;;;;;4988256;28;7117;-92
2023/04/21 06:29:26;;;;;;;;;;;;;;;;;;4992659;28;7817;-92
2023/04/21 06:31:52;;;;;;;;;;;;;;;;;;5009015;28;8342;-93
2023/04/21 06:34:19;;;;;;;;;;;;;;;;;;5009587;28;8303;-93
2023/04/21 06:36:45;;;;;;;;;;;;;;;;;;5010287;28;6822;-94
2023/04/21 06:39:14;;;;;;;;;;;;;;;;;;5010717;28;7025;-93
2023/04/21 06:41:39;;;;;;;;;;;;;;;;;;5010576;28;6845;-91
2023/04/21 06:44:05;;;;;;;;;;;;;;;;;;5000897;28;8363;-92
2023/04/21 06:46:31;;;;;;;;;;;;;;;;;;5005647;28;8291;-92
2023/04/21 06:48:56;;;;;;;;;;;;;;;;;;5007688;28;8427;-91
2023/04/21 06:51:22;;;;;;;;;;;;;;;;;;5005945;28;8407;-92
2023/04/21 06:53:48;;;;;;;;;;;;;;;;;;5005449;28;8385;-92
2023/04/21 06:56:13;;;;;;;;;;;;;;;;;;5005369;28;7208;-92
2023/04/21 06:58:39;;;;;;;;;;;;;;;;;;5005675;28;6993;-92
2023/04/21 07:01:04;;;;;;;;;;;;;;;;;;5006794;28;6844;-93
2023/04/21 07:03:30;;;;;;;;;;;;;;;;;;5025222;28;7227;-93
2023/04/21 07:05:56;;;;;;;;;;;;;;;;;;5018961;28;6888;-93
2023/04/21 07:08:21;;;;;;;;;;;;;;;;;;5013802;28;6992;-92
2023/04/21 07:10:47;;;;;;;;;;;;;;;;;;5005138;28;8280;-93
2023/04/21 07:13:12;;;;;;;;;;;;;;;;;;5013970;28;7184;-93
2023/04/21 07:15:38;;;;;;;;;;;;;;;;;;5005051;28;8435;-93
2023/04/21 07:18:04;;;;;;;;;;;;;;;;;;5008554;28;6801;-93
2023/04/21 07:20:29;;;;;;;;;;;;;;;;;;5024655;28;6969;-92
2023/04/21 07:22:55;;;;;;;;;;;;;;;;;;5024684;28;8489;-92
2023/04/21 07:25:21;;;;;;;;;;;;;;;;;;5022482;28;8350;-92
2023/04/21 07:27:46;;;;;;;;;;;;;;;;;;5011814;28;8720;-94
2023/04/21 07:30:12;;;;;;;;;;;;;;;;;;5004928;28;8336;-93
2023/04/21 07:32:38;;;;;;;;;;;;;;;;;;5007701;28;8306;-93
2023/04/21 07:35:04;;;;;;;;;;;;;;;;;;5020648;28;8465;-92
2023/04/21 07:37:30;;;;;;;;;;;;;;;;;;5007755;28;8704;-93
2023/04/21 07:39:56;;;;;;;;;;;;;;;;;;4994838;28;8406;-92
2023/04/21 07:42:21;;;;;;;;;;;;;;;;;;5004804;28;7168;-92
2023/04/21 07:44:47;;;;;;;;;;;;;;;;;;5006456;28;8996;-91
2023/04/21 07:47:13;;;;;;;;;;;;;;;;;;5017753;28;6863;-91
2023/04/21 07:49:39;;;;;;;;;;;;;;;;;;5004672;28;7304;-92
2023/04/21 07:52:04;;;;;;;;;;;;;;;;;;5013106;28;8381;-92
2023/04/21 07:54:30;;;;;;;;;;;;;;;;;;5003125;28;8324;-91
2023/04/21 07:56:56;;;;;;;;;;;;;;;;;;5018484;28;8308;-92
2023/04/21 07:59:21;;;;;;;;;;;;;;;;;;4997809;28;8524;-91
2023/04/21 08:01:47;;;;;;;;;;;;;;;;;;5009813;28;7077;-91
2023/04/21 08:04:12;;;;;;;;;;;;;;;;;;4998155;28;8646;-92
2023/04/21 08:06:38;;;;;;;;;;;;;;;;;;5002985;28;8399;-90
2023/04/21 08:09:04;;;;;;;;;;;;;;;;;;5006583;28;6990;-91
2023/04/21 08:11:29;;;;;;;;;;;;;;;;;;5024301;28;9274;-91
2023/04/21 08:13:56;;;;;;;;;;;;;;;;;;5024494;28;7152;-93
2023/04/21 08:16:22;;;;;;;;;;;;;;;;;;5006914;28;7090;-91
2023/04/21 08:18:47;;;;;;;;;;;;;;;;;;5004681;28;7159;-91
2023/04/21 08:21:13;;;;;;;;;;;;;;;;;;5004419;28;8410;-92
2023/04/21 08:23:39;;;;;;;;;;;;;;;;;;5028069;28;7044;-91
2023/04/21 08:26:05;;;;;;;;;;;;;;;;;;5018428;28;8866;-93
2023/04/21 08:28:30;;;;;;;;;;;;;;;;;;5013365;28;8575;-91
2023/04/21 08:30:56;;;;;;;;;;;;;;;;;;5024598;28;8569;-92
2023/04/21 08:33:22;;;;;;;;;;;;;;;;;;5008203;28;7304;-92
2023/04/21 08:35:48;;;;;;;;;;;;;;;;;;5007761;28;8734;-92
2023/04/21 08:38:13;;;;;;;;;;;;;;;;;;5007881;28;8273;-91
2023/04/21 08:40:40;;;;;;;;;;;;;;;;;;5007874;28;8409;-92
2023/04/21 08:43:07;;;;;;;;;;;;;;;;;;5008284;28;6835;-92
2023/04/21 08:45:34;;;;;;;;;;;;;;;;;;5008045;28;8462;-93
2023/04/21 08:48:01;;;;;;;;;;;;;;;;;;5007749;28;8256;-92
2023/04/21 08:50:31;;;;;;;;;;;;;;;;;;5007745;28;8422;-91
2023/04/21 08:52:57;;;;;;;;;;;;;;;;;;5013863;28;8301;-92
2023/04/21 08:55:28;;;;;;;;;;;;;;;;;;5011004;28;6818;-91
2023/04/21 08:57:54;;;;;;;;;;;;;;;;;;5027138;28;8372;-92
2023/04/21 09:00:20;;;;;;;;;;;;;;;;;;5027175;28;7006;-94
2023/04/21 09:02:53;;;;;;;;;;;;;;;;;;5012432;28;8459;-94
2023/04/21 09:05:23;;;;;;;;;;;;;;;;;;5008684;28;8492;-92
2023/04/21 09:07:49;;;;;;;;;;;;;;;;;;5022961;28;6900;-94
2023/04/21 09:10:21;;;;;;;;;;;;;;;;;;5010839;28;7246;-95
2023/04/21 09:12:49;;;;;;;;;;;;;;;;;;5021392;28;6893;-93
2023/04/21 09:15:15;;;;;;;;;;;;;;;;;;5007418;28;8457;-94
2023/04/21 09:17:44;;;;;;;;;;;;;;;;;;5018503;28;8498;-94
2023/04/21 09:20:21;;;;;;;;;;;;;;;;;;5007201;28;8442;-94
2023/04/21 09:22:50;;;;;;;;;;;;;;;;;;5007003;28;8280;-93
2023/04/21 09:25:18;;;;;;;;;;;;;;;;;;5007318;28;7192;-93
2023/04/21 09:27:45;;;;;;;;;;;;;;;;;;5006947;28;7074;-95
2023/04/21 09:30:11;;;;;;;;;;;;;;;;;;5009697;28;7041;-94
2023/04/21 09:32:37;;;;;;;;;;;;;;;;;;5009412;28;7185;-96
2023/04/21 09:35:05;;;;;;;;;;;;;;;;;;5009082;28;7166;-94
2023/04/21 09:37:34;;;;;;;;;;;;;;;;;;4999519;28;9092;-95
2023/04/21 09:40:00;;;;;;;;;;;;;;;;;;5006910;28;8408;-94
2023/04/21 09:42:29;;;;;;;;;;;;;;;;;;5006978;28;8585;-93
2023/04/21 09:44:55;;;;;;;;;;;;;;;;;;5006734;28;7623;-93
2023/04/21 09:47:21;;;;;;;;;;;;;;;;;;5006820;28;7098;-94
2023/04/21 09:49:50;;;;;;;;;;;;;;;;;;5006752;28;6830;-94
2023/04/21 09:52:18;;;;;;;;;;;;;;;;;;5006684;28;7115;-94
2023/04/21 09:54:49;;;;;;;;;;;;;;;;;;5006506;28;7097;-95
2023/04/21 09:57:20;;;;;;;;;;;;;;;;;;5006683;28;8350;-95
2023/04/21 09:59:46;;;;;;;;;;;;;;;;;;5006734;28;8904;-94
2023/04/21 10:02:13;;;;;;;;;;;;;;;;;;5006304;28;7241;-94
2023/04/21 10:04:41;;;;;;;;;;;;;;;;;;5006569;28;7157;-94
2023/04/21 10:07:08;;;;;;;;;;;;;;;;;;5010814;28;7045;-93
2023/04/21 10:09:39;;;;;;;;;;;;;;;;;;5024655;28;8419;-92
2023/04/21 10:12:05;;;;;;;;;;;;;;;;;;5006490;28;6827;-93
2023/04/21 10:14:31;;;;;;;;;;;;;;;;;;5006491;28;8523;-94
2023/04/21 10:17:02;;;;;;;;;;;;;;;;;;5006107;28;8722;-93
2023/04/21 10:19:30;;;;;;;;;;;;;;;;;;5006162;28;8507;-92
2023/04/21 10:21:57;;;;;;;;;;;;;;;;;;5016460;28;7417;-93
2023/04/21 10:24:22;;;;;;;;;;;;;;;;;;5017939;28;8660;-91
2023/04/21 10:26:50;;;;;;;;;;;;;;;;;;5033667;28;8348;-93
2023/04/21 10:29:27;;;;;;;;;;;;;;;;;;5029272;28;6830;-95
2023/04/21 10:31:53;;;;;;;;;;;;;;;;;;5002371;28;7308;-93
2023/04/21 10:34:20;;;;;;;;;;;;;;;;;;5033731;28;7366;-94
2023/04/21 10:36:56;;;;;;;;;;;;;;;;;;5007512;28;8885;-95
2023/04/21 10:39:34;;;;;;;;;;;;;;;;;;5020308;28;8371;-94
2023/04/21 10:42:12;;;;;;;;;;;;;;;;;;5016234;28;6820;-93
2023/04/21 10:44:44;;;;;;;;;;;;;;;;;;5002173;28;7512;-94
2023/04/21 10:47:10;;;;;;;;;;;;;;;;;;5025431;28;7167;-94
2023/04/21 10:49:39;;;;;;;;;;;;;;;;;;5024801;28;7140;-95
2023/04/21 10:52:11;;;;;;;;;;;;;;;;;;5005576;28;7058;-95
2023/04/21 10:54:40;;;;;;;;;;;;;;;;;;5004906;28;6832;-94
2023/04/21 10:57:08;;;;;;;;;;;;;;;;;;4988861;28;7057;-95
2023/04/21 10:59:35;;;;;;;;;;;;;;;;;;5005029;28;6838;-95
2023/04/21 11:02:14;;;;;;;;;;;;;;;;;;5007201;28;8280;-95
2023/04/21 11:04:49;;;;;;;;;;;;;;;;;;5005370;28;7322;-94
2023/04/21 11:07:24;;;;;;;;;;;;;;;;;;5015220;28;6868;-93
2023/04/21 11:10:07;;;;;;;;;;;;;;;;;;5018494;28;8509;-94
2023/04/21 11:12:36;;;;;;;;;;;;;;;;;;5024591;28;7232;-95
2023/04/21 11:15:03;;;;;;;;;;;;;;;;;;5016355;28;8719;-94
2023/04/21 11:17:29;;;;;;;;;;;;;;;;;;5004862;28;8910;-95
2023/04/21 11:19:55;;;;;;;;;;;;;;;;;;5005251;28;7461;-94
2023/04/21 11:22:23;;;;;;;;;;;;;;;;;;5015876;28;8283;-94
2023/04/21 11:24:54;;;;;;;;;;;;;;;;;;5024777;28;8658;-94
2023/04/21 11:27:21;;;;;;;;;;;;;;;;;;5024619;28;8383;-93
2023/04/21 11:29:47;;;;;;;;;;;;;;;;;;5024550;28;7096;-94
2023/04/21 11:32:13;;;;;;;;;;;;;;;;;;5024476;28;8410;-94
2023/04/21 11:34:39;;;;;;;;;;;;;;;;;;5020888;28;8669;-95
2023/04/21 11:37:10;;;;;;;;;;;;;;;;;;5021420;28;8309;-95
2023/04/21 11:39:39;;;;;;;;;;;;;;;;;;5021133;28;7122;-96
2023/04/21 11:42:04;;;;;;;;;;;;;;;;;;5016528;28;7001;-95
2023/04/21 11:44:38;;;;;;;;;;;;;;;;;;4996167;28;7362;-95
2023/04/21 11:47:18;;;;;;;;;;;;;;;;;;5001473;28;8270;-94
2023/04/21 11:49:54;;;;;;;;;;;;;;;;;;5001402;28;8294;-94
2023/04/21 11:52:21;;;;;;;;;;;;;;;;;;5001694;28;8434;-94
2023/04/21 11:54:47;;;;;;;;;;;;;;;;;;5001450;28;7234;-95
2023/04/21 11:57:16;;;;;;;;;;;;;;;;;;5003398;28;6805;-95
2023/04/21 11:59:44;;;;;;;;;;;;;;;;;;5005672;28;8555;-95
2023/04/21 12:02:12;;;;;;;;;;;;;;;;;;5006475;28;6927;-96
2023/04/21 12:04:38;;;;;;;;;;;;;;;;;;5004895;28;8732;-95
2023/04/21 12:07:04;;;;;;;;;;;;;;;;;;5007693;28;8696;-95
2023/04/21 12:09:30;;;;;;;;;;;;;;;;;;5022165;28;7244;-94
2023/04/21 12:11:57;;;;;;;;;;;;;;;;;;5022821;28;8362;-94
2023/04/21 12:14:25;;;;;;;;;;;;;;;;;;5005018;28;8437;-95
2023/04/21 12:16:53;;;;;;;;;;;;;;;;;;5005159;28;8418;-95
2023/04/21 12:19:36;;;;;;;;;;;;;;;;;;5005001;28;8722;-95
2023/04/21 12:22:06;;;;;;;;;;;;;;;;;;5005073;28;8405;-95
2023/04/21 12:24:31;;;;;;;;;;;;;;;;;;5005693;28;8636;-95
2023/04/21 12:26:57;;;;;;;;;;;;;;;;;;5014596;28;7327;-95
2023/04/21 12:29:23;;;;;;;;;;;;;;;;;;5012223;28;7153;-95
2023/04/21 12:31:49;;;;;;;;;;;;;;;;;;5004890;28;8378;-93
2023/04/21 12:34:15;;;;;;;;;;;;;;;;;;5003626;28;8690;-95
2023/04/21 12:36:41;;;;;;;;;;;;;;;;;;5008050;28;7027;-95
2023/04/21 12:39:06;;;;;;;;;;;;;;;;;;5011157;28;8381;-95
2023/04/21 12:41:33;;;;;;;;;;;;;;;;;;5027468;28;7312;-96
2023/04/21 12:43:59;;;;;;;;;;;;;;;;;;5027616;28;7322;-95
2023/04/21 12:46:25;;;;;;;;;;;;;;;;;;5027383;28;8453;-94
2023/04/21 12:48:51;;;;;;;;;;;;;;;;;;5027335;28;8348;-95
2023/04/21 12:51:17;;;;;;;;;;;;;;;;;;5018446;28;7038;-94
2023/04/21 12:53:42;;;;;;;;;;;;;;;;;;5010835;28;7047;-94
2023/04/21 12:56:08;;;;;;;;;;;;;;;;;;5027120;28;7220;-93
2023/04/21 12:58:34;;;;;;;;;;;;;;;;;;5027346;28;8268;-93
2023/04/21 13:01:00;;;;;;;;;;;;;;;;;;5027248;28;7023;-94
2023/04/21 13:03:26;;;;;;;;;;;;;;;;;;5027471;28;8433;-95
2023/04/21 13:05:52;;;;;;;;;;;;;;;;;;5026994;28;7297;-94
2023/04/21 13:08:17;;;;;;;;;;;;;;;;;;5026743;28;8512;-94
2023/04/21 13:10:44;;;;;;;;;;;;;;;;;;5027701;28;6829;-95
2023/04/21 13:13:10;;;;;;;;;;;;;;;;;;5025265;28;7257;-94
2023/04/21 13:15:38;;;;;;;;;;;;;;;;;;5026686;28;8345;-94
2023/04/21 13:18:04;;;;;;;;;;;;;;;;;;5026735;28;8447;-94
2023/04/21 13:20:30;;;;;;;;;;;;;;;;;;5026236;28;8355;-94
2023/04/21 13:22:55;;;;;;;;;;;;;;;;;;5026312;28;6812;-93
2023/04/21 13:25:21;;;;;;;;;;;;;;;;;;5026396;28;7009;-94
2023/04/21 13:27:47;;;;;;;;;;;;;;;;;;5026844;28;8482;-94
2023/04/21 13:30:13;;;;;;;;;;;;;;;;;;5025871;28;8665;-92
2023/04/21 13:32:40;;;;;;;;;;;;;;;;;;5025691;28;8502;-93
2023/04/21 13:35:08;;;;;;;;;;;;;;;;;;5026039;28;7229;-94
2023/04/21 13:37:34;;;;;;;;;;;;;;;;;;5026501;28;6833;-94
2023/04/21 13:40:00;;;;;;;;;;;;;;;;;;5026644;28;6852;-95
2023/04/21 13:42:26;;;;;;;;;;;;;;;;;;5027027;28;7256;-95
2023/04/21 13:44:52;;;;;;;;;;;;;;;;;;5026121;28;8417;-95
2023/04/21 13:47:18;;;;;;;;;;;;;;;;;;5026455;28;8757;-93
2023/04/21 13:49:44;;;;;;;;;;;;;;;;;;5026305;28;7045;-95
2023/04/21 13:52:11;;;;;;;;;;;;;;;;;;5026506;28;7025;-95
2023/04/21 13:54:36;;;;;;;;;;;;;;;;;;5025442;28;6833;-94
2023/04/21 13:57:02;;;;;;;;;;;;;;;;;;5026568;28;7003;-94
2023/04/21 13:59:28;;;;;;;;;;;;;;;;;;5027227;28;7171;-94
2023/04/21 14:01:54;;;;;;;;;;;;;;;;;;5013021;28;8351;-94
2023/04/21 14:04:20;;;;;;;;;;;;;;;;;;5007855;28;7197;-95
2023/04/21 14:06:48;;;;;;;;;;;;;;;;;;5009279;28;8655;-94
2023/04/21 14:09:13;;;;;;;;;;;;;;;;;;5025732;28;6842;-94
2023/04/21 14:11:39;;;;;;;;;;;;;;;;;;5015125;28;7130;-95
2023/04/21 14:14:05;;;;;;;;;;;;;;;;;;5025641;28;8291;-91
2023/04/21 14:16:31;;;;;;;;;;;;;;;;;;5027778;28;7241;-95
2023/04/21 14:18:56;;;;;;;;;;;;;;;;;;5024696;28;7014;-94
2023/04/21 14:21:22;;;;;;;;;;;;;;;;;;5025141;28;6995;-94
2023/04/21 14:23:48;;;;;;;;;;;;;;;;;;5025321;28;7886;-95
2023/04/21 14:26:14;;;;;;;;;;;;;;;;;;5025369;28;7447;-95
2023/04/21 14:28:40;;;;;;;;;;;;;;;;;;5025072;28;8305;-93
2023/04/21 14:31:06;;;;;;;;;;;;;;;;;;5025160;28;7344;-93
2023/04/21 14:33:32;;;;;;;;;;;;;;;;;;5025620;28;7012;-93
2023/04/21 14:35:58;;;;;;;;;;;;;;;;;;5022115;28;8394;-94
2023/04/21 14:38:24;;;;;;;;;;;;;;;;;;5005611;28;8817;-94
2023/04/21 14:40:53;;;;;;;;;;;;;;;;;;5022554;28;6865;-95
2023/04/21 14:43:19;;;;;;;;;;;;;;;;;;5022246;28;7031;-93
2023/04/21 14:45:46;;;;;;;;;;;;;;;;;;5022316;28;7151;-95
2023/04/21 14:48:13;;;;;;;;;;;;;;;;;;5022176;28;8457;-94
2023/04/21 14:50:39;;;;;;;;;;;;;;;;;;5022033;28;8306;-94
2023/04/21 14:53:05;;;;;;;;;;;;;;;;;;5022311;28;8514;-94
2023/04/21 14:55:31;;;;;;;;;;;;;;;;;;5021821;28;6990;-94
2023/04/21 14:57:57;;;;;;;;;;;;;;;;;;5021930;28;7138;-94
2023/04/21 15:00:23;;;;;;;;;;;;;;;;;;5021943;28;8632;-95
2023/04/21 15:02:49;;;;;;;;;;;;;;;;;;5022137;28;7009;-94
2023/04/21 15:05:14;;;;;;;;;;;;;;;;;;5022058;28;8387;-94
2023/04/21 15:07:40;;;;;;;;;;;;;;;;;;5021716;28;6907;-94
2023/04/21 15:10:10;;;;;;;;;;;;;;;;;;5021962;28;6820;-95
2023/04/21 15:12:36;;;;;;;;;;;;;;;;;;5021868;28;7297;-94
2023/04/21 15:15:02;;;;;;;;;;;;;;;;;;5021829;28;7037;-94
2023/04/21 15:17:28;;;;;;;;;;;;;;;;;;5022097;28;8307;-94
2023/04/21 15:19:54;;;;;;;;;;;;;;;;;;5018366;28;7383;-96
2023/04/21 15:22:20;;;;;;;;;;;;;;;;;;4997990;28;8305;-94
2023/04/21 15:24:45;;;;;;;;;;;;;;;;;;5005451;28;8410;-94
2023/04/21 15:27:11;;;;;;;;;;;;;;;;;;5005198;28;8665;-96
2023/04/21 15:29:37;;;;;;;;;;;;;;;;;;4999354;28;6986;-96
2023/04/21 15:32:03;;;;;;;;;;;;;;;;;;4993540;28;6798;-94
2023/04/21 15:34:28;;;;;;;;;;;;;;;;;;5024505;28;8346;-95
2023/04/21 15:36:54;;;;;;;;;;;;;;;;;;5025100;28;7133;-95
2023/04/21 15:39:20;;;;;;;;;;;;;;;;;;5021504;28;7010;-94
2023/04/21 15:41:46;;;;;;;;;;;;;;;;;;5005171;28;8407;-94
2023/04/21 15:44:11;;;;;;;;;;;;;;;;;;5010304;28;8412;-94
2023/04/21 15:46:37;;;;;;;;;;;;;;;;;;5024824;28;8458;-96
2023/04/21 15:49:03;;;;;;;;;;;;;;;;;;5024852;28;8287;-96
2023/04/21 15:51:28;;;;;;;;;;;;;;;;;;5024769;28;7069;-95
2023/04/21 15:53:54;;;;;;;;;;;;;;;;;;5024866;28;8434;-95
2023/04/21 15:56:20;;;;;;;;;;;;;;;;;;5024598;28;7155;-95
2023/04/21 15:58:46;;;;;;;;;;;;;;;;;;5024610;28;8803;-95
2023/04/21 16:01:12;;;;;;;;;;;;;;;;;;5024382;28;8528;-94
2023/04/21 16:03:38;;;;;;;;;;;;;;;;;;5023914;28;8420;-94
2023/04/21 16:06:04;;;;;;;;;;;;;;;;;;5023712;28;6967;-92
2023/04/21 16:08:31;;;;;;;;;;;;;;;;;;5024176;28;7300;-95
2023/04/21 16:10:58;;;;;;;;;;;;;;;;;;5023697;28;7039;-94
2023/04/21 16:13:24;;;;;;;;;;;;;;;;;;5024330;28;6843;-93
2023/04/21 16:15:50;;;;;;;;;;;;;;;;;;5023836;28;8490;-93
2023/04/21 16:18:16;;;;;;;;;;;;;;;;;;5023489;28;8511;-94
2023/04/21 16:20:44;;;;;;;;;;;;;;;;;;5024039;28;8723;-94
2023/04/21 16:23:13;;;;;;;;;;;;;;;;;;5024308;28;8424;-93
2023/04/21 16:25:39;;;;;;;;;;;;;;;;;;5024280;28;8922;-94
2023/04/21 16:28:05;;;;;;;;;;;;;;;;;;5024070;28;8641;-94
2023/04/21 16:30:31;;;;;;;;;;;;;;;;;;5024141;28;8693;-94
2023/04/21 16:32:57;;;;;;;;;;;;;;;;;;5023928;28;8533;-94
2023/04/21 16:35:23;;;;;;;;;;;;;;;;;;5020833;28;7306;-94
2023/04/21 16:37:48;;;;;;;;;;;;;;;;;;5020970;28;8359;-92
2023/04/21 16:40:14;;;;;;;;;;;;;;;;;;5020288;28;7061;-94
2023/04/21 16:42:40;;;;;;;;;;;;;;;;;;5021497;28;8260;-95
2023/04/21 16:45:06;;;;;;;;;;;;;;;;;;5022290;28;7091;-93
2023/04/21 16:47:34;;;;;;;;;;;;;;;;;;5020852;28;8656;-94
2023/04/21 16:50:00;;;;;;;;;;;;;;;;;;5022155;28;7205;-94
2023/04/21 16:52:26;;;;;;;;;;;;;;;;;;5022575;28;7026;-95
2023/04/21 16:54:52;;;;;;;;;;;;;;;;;;5020752;28;7002;-93
2023/04/21 16:57:18;;;;;;;;;;;;;;;;;;5022767;28;6809;-94
2023/04/21 16:59:43;;;;;;;;;;;;;;;;;;5024094;28;8411;-93